createdAt,value
2023-05-14T00:02:26.630Z,97751.22
2023-05-14T00:04:56.283Z,97751.22
2023-05-14T00:07:30.850Z,97726.25
2023-05-14T00:09:59.249Z,97739.81
2023-05-14T00:12:27.843Z,97732.81
2023-05-14T00:14:56.036Z,97717.34
2023-05-14T00:17:24.525Z,97724.13
2023-05-14T00:19:52.684Z,97720.72
2023-05-14T00:22:22.352Z,97714.50
2023-05-14T00:24:50.578Z,97717.97
2023-05-14T00:27:18.754Z,97713.47
2023-05-14T00:29:46.915Z,97705.66
2023-05-14T00:32:15.037Z,97699.56
2023-05-14T00:34:43.266Z,97706.63
2023-05-14T00:37:11.419Z,97695.22
2023-05-14T00:39:41.000Z,97704.72
2023-05-14T00:42:09.365Z,97629.84
2023-05-14T00:44:37.604Z,97700.34
2023-05-14T00:47:06.525Z,97695.03
2023-05-14T00:49:35.346Z,97696.88
2023-05-14T00:52:03.996Z,97676.97
2023-05-14T00:54:32.850Z,97640.97
2023-05-14T00:57:03.286Z,97689.75
2023-05-14T00:59:31.573Z,97670.34
2023-05-14T01:01:59.738Z,97681.31
2023-05-14T01:04:28.265Z,97597.81
2023-05-14T01:07:08.381Z,97619.44
2023-05-14T01:09:43.949Z,97664.78
2023-05-14T01:12:20.952Z,97674.97
2023-05-14T01:14:56.269Z,97681.94
2023-05-14T01:17:28.305Z,97672.28
2023-05-14T01:19:56.901Z,97668.81
2023-05-14T01:22:26.513Z,97651.59
2023-05-14T01:24:54.742Z,97619.75
2023-05-14T01:27:28.797Z,97663.63
2023-05-14T01:30:04.548Z,97632.75
2023-05-14T01:32:34.976Z,97668.88
2023-05-14T01:35:03.894Z,97594.31
2023-05-14T01:37:34.258Z,97644.84
2023-05-14T01:40:03.789Z,97672.34
2023-05-14T01:42:32.727Z,97666.25
2023-05-14T01:45:01.216Z,97605.31
2023-05-14T01:47:29.588Z,97645.75
2023-05-14T01:49:57.800Z,97675.91
2023-05-14T01:52:25.977Z,97661.91
2023-05-14T01:54:55.650Z,97667.16
2023-05-14T01:57:23.960Z,97663.75
2023-05-14T01:59:52.248Z,97654.66
2023-05-14T02:02:20.465Z,97641.72
2023-05-14T02:04:48.669Z,97536.72
2023-05-14T02:07:16.938Z,97649.72
2023-05-14T02:09:45.227Z,97649.78
2023-05-14T02:12:14.859Z,97649.81
2023-05-14T02:14:43.095Z,97627.25
2023-05-14T02:17:11.253Z,97650.31
2023-05-14T02:19:39.412Z,97636.16
2023-05-14T02:22:07.607Z,97648.63
2023-05-14T02:24:35.841Z,97627.19
2023-05-14T02:27:04.026Z,97628.72
2023-05-14T02:29:33.669Z,97655.88
2023-05-14T02:32:01.923Z,97637.41
2023-05-14T02:34:30.103Z,97634.84
2023-05-14T02:36:58.267Z,97583.28
2023-05-14T02:39:26.499Z,97581.53
2023-05-14T02:41:54.868Z,97623.63
2023-05-14T02:44:23.054Z,97622.75
2023-05-14T02:46:53.144Z,97617.44
2023-05-14T02:49:21.580Z,97614.75
2023-05-14T02:51:49.802Z,97609.66
2023-05-14T02:54:18.031Z,97607.75
2023-05-14T02:56:46.234Z,97612.13
2023-05-14T02:59:14.606Z,97569.25
2023-05-14T03:01:43.410Z,97604.25
2023-05-14T03:04:13.595Z,97575.06
2023-05-14T03:06:41.897Z,97592.19
2023-05-14T03:09:10.232Z,97599.97
2023-05-14T03:11:38.545Z,97601.69
2023-05-14T03:14:06.794Z,97598.88
2023-05-14T03:16:35.023Z,97607.59
2023-05-14T03:19:04.091Z,97605.13
2023-05-14T03:21:33.818Z,97600.78
2023-05-14T03:24:02.013Z,97596.38
2023-05-14T03:26:30.221Z,97601.56
2023-05-14T03:28:58.403Z,97569.03
2023-05-14T03:31:26.943Z,97609.66
2023-05-14T03:33:55.182Z,97597.50
2023-05-14T03:36:23.395Z,97574.28
2023-05-14T03:38:53.029Z,97586.28
2023-05-14T03:41:22.029Z,97592.31
2023-05-14T03:43:50.214Z,97583.84
2023-05-14T03:46:18.391Z,97603.59
2023-05-14T03:48:46.656Z,97598.41
2023-05-14T03:51:14.922Z,97599.25
2023-05-14T03:53:43.145Z,97589.03
2023-05-14T03:56:12.691Z,97586.41
2023-05-14T03:58:40.960Z,97588.97
2023-05-14T04:01:09.188Z,97600.91
2023-05-14T04:03:37.632Z,97591.34
2023-05-14T04:06:06.395Z,97578.59
2023-05-14T04:08:34.498Z,97583.53
2023-05-14T04:11:02.647Z,97575.19
2023-05-14T04:13:32.428Z,97587.81
2023-05-14T04:16:00.741Z,97544.69
2023-05-14T04:18:28.990Z,97574.88
2023-05-14T04:20:57.183Z,97592.19
2023-05-14T04:23:25.297Z,97587.00
2023-05-14T04:25:53.532Z,97583.38
2023-05-14T04:28:21.712Z,97576.59
2023-05-14T04:30:51.973Z,97577.31
2023-05-14T04:33:20.120Z,97578.09
2023-05-14T04:35:48.551Z,97486.25
2023-05-14T04:38:16.738Z,97584.28
2023-05-14T04:40:44.938Z,97570.03
2023-05-14T04:43:13.187Z,97578.69
2023-05-14T04:45:43.234Z,97565.69
2023-05-14T04:48:12.812Z,97566.69
2023-05-14T04:50:40.975Z,97550.22
2023-05-14T04:53:09.171Z,97560.53
2023-05-14T04:55:37.479Z,97555.22
2023-05-14T04:58:05.684Z,97541.44
2023-05-14T05:00:34.331Z,97557.94
2023-05-14T05:03:02.594Z,97558.69
2023-05-14T05:05:32.451Z,97552.72
2023-05-14T05:08:00.596Z,97543.19
2023-05-14T05:10:28.794Z,97543.88
2023-05-14T05:12:57.029Z,97549.09
2023-05-14T05:15:26.582Z,97529.34
2023-05-14T05:17:55.073Z,97544.78
2023-05-14T05:20:23.649Z,97538.59
2023-05-14T05:22:53.454Z,97540.44
2023-05-14T05:25:21.723Z,97536.91
2023-05-14T05:27:50.115Z,97531.59
2023-05-14T05:30:18.363Z,97527.28
2023-05-14T05:32:46.782Z,97527.22
2023-05-14T05:35:15.045Z,97518.75
2023-05-14T05:37:45.363Z,97530.72
2023-05-14T05:40:15.940Z,97525.38
2023-05-14T05:42:44.130Z,97530.53
2023-05-14T05:45:12.678Z,97525.38
2023-05-14T05:47:41.087Z,97517.75
2023-05-14T05:50:10.745Z,97441.31
2023-05-14T05:52:39.258Z,97532.25
2023-05-14T05:55:08.197Z,97536.66
2023-05-14T05:57:37.829Z,97528.84
2023-05-14T06:00:13.157Z,97528.75
2023-05-14T06:02:42.047Z,97517.59
2023-05-14T06:05:11.676Z,97508.81
2023-05-14T06:07:40.179Z,97519.97
2023-05-14T06:10:09.521Z,97525.09
2023-05-14T06:12:39.179Z,97517.22
2023-05-14T06:15:08.559Z,97515.47
2023-05-14T06:17:36.795Z,97509.28
2023-05-14T06:20:08.065Z,97514.41
2023-05-14T06:22:36.513Z,97404.34
2023-05-14T06:25:05.236Z,97423.47
2023-05-14T06:27:33.549Z,97475.50
2023-05-14T06:30:03.302Z,97490.00
2023-05-14T06:32:31.511Z,97496.53
2023-05-14T06:34:59.667Z,97495.56
2023-05-14T06:37:29.091Z,97502.63
2023-05-14T06:39:58.053Z,97491.22
2023-05-14T06:42:26.536Z,97492.94
2023-05-14T06:44:54.783Z,97492.06
2023-05-14T06:47:24.643Z,97485.63
2023-05-14T06:49:52.887Z,97482.94
2023-05-14T06:52:21.098Z,97459.09
2023-05-14T06:54:49.314Z,97455.59
2023-05-14T06:57:17.559Z,97469.94
2023-05-14T06:59:45.730Z,97467.31
2023-05-14T07:02:13.973Z,97400.63
2023-05-14T07:04:43.715Z,97444.47
2023-05-14T07:07:15.515Z,97467.25
2023-05-14T07:09:43.780Z,97440.19
2023-05-14T07:12:12.052Z,97444.53
2023-05-14T07:14:40.299Z,97449.84
2023-05-14T07:17:08.599Z,97416.16
2023-05-14T07:19:36.871Z,97473.72
2023-05-14T07:22:06.648Z,97478.94
2023-05-14T07:24:34.878Z,97456.63
2023-05-14T07:27:03.132Z,97470.19
2023-05-14T07:29:31.415Z,97451.84
2023-05-14T07:31:59.645Z,97424.31
2023-05-14T07:34:27.957Z,97449.22
2023-05-14T07:36:56.370Z,97362.56
2023-05-14T07:39:26.079Z,97385.03
2023-05-14T07:41:55.002Z,97463.41
2023-05-14T07:44:23.328Z,97447.09
2023-05-14T07:46:51.622Z,97415.44
2023-05-14T07:49:20.016Z,97458.03
2023-05-14T07:51:48.348Z,97397.94
2023-05-14T07:54:16.866Z,97458.09
2023-05-14T07:56:46.563Z,97429.38
2023-05-14T07:59:14.834Z,97420.38
2023-05-14T08:01:43.260Z,97430.47
2023-05-14T08:04:12.150Z,97394.66
2023-05-14T08:06:40.571Z,97402.41
2023-05-14T08:09:08.825Z,97441.22
2023-05-14T08:11:37.124Z,97435.03
2023-05-14T08:14:06.859Z,97429.69
2023-05-14T08:16:35.301Z,97250.72
2023-05-14T08:19:03.627Z,97424.53
2023-05-14T08:21:31.951Z,97426.38
2023-05-14T08:24:00.634Z,97376.72
2023-05-14T08:26:28.901Z,97420.06
2023-05-14T08:28:57.161Z,97402.91
2023-05-14T08:31:27.058Z,97290.53
2023-05-14T08:33:55.933Z,97386.47
2023-05-14T08:36:24.182Z,97405.25
2023-05-14T08:38:52.478Z,97389.63
2023-05-14T08:41:21.442Z,97411.13
2023-05-14T08:43:59.329Z,97402.34
2023-05-14T08:46:31.192Z,97392.41
2023-05-14T08:49:09.002Z,97302.84
2023-05-14T08:51:37.750Z,97363.53
2023-05-14T08:54:07.297Z,97380.59
2023-05-14T08:56:36.115Z,97370.41
2023-05-14T08:59:05.084Z,97390.16
2023-05-14T09:01:34.953Z,97388.47
2023-05-14T09:04:07.245Z,97388.41
2023-05-14T09:06:37.532Z,97367.00
2023-05-14T09:09:06.011Z,97385.06
2023-05-14T09:11:34.260Z,97383.22
2023-05-14T09:14:02.594Z,97230.03
2023-05-14T09:16:31.074Z,97381.03
2023-05-14T09:19:00.878Z,97378.97
2023-05-14T09:21:32.162Z,97341.16
2023-05-14T09:24:01.728Z,97356.28
2023-05-14T09:26:33.592Z,97358.16
2023-05-14T09:29:03.550Z,97378.41
2023-05-14T09:31:33.054Z,97372.19
2023-05-14T09:34:02.753Z,97364.19
2023-05-14T09:36:31.754Z,97364.19
2023-05-14T09:39:00.007Z,97235.78
2023-05-14T09:41:28.222Z,97328.91
2023-05-14T09:43:57.451Z,97358.03
2023-05-14T09:46:30.280Z,97351.09
2023-05-14T09:48:58.661Z,97326.22
2023-05-14T09:51:32.767Z,97334.16
2023-05-14T09:54:01.940Z,97345.91
2023-05-14T09:56:30.237Z,97319.28
2023-05-14T09:58:58.436Z,97330.69
2023-05-14T10:01:27.678Z,97320.16
2023-05-14T10:03:56.366Z,97247.28
2023-05-14T10:06:27.112Z,97346.50
2023-05-14T10:08:58.735Z,97316.06
2023-05-14T10:11:32.308Z,97308.97
2023-05-14T10:14:05.248Z,97314.75
2023-05-14T10:16:39.241Z,97311.75
2023-05-14T10:19:10.578Z,97313.41
2023-05-14T10:21:41.605Z,97329.22
2023-05-14T10:24:12.775Z,97298.41
2023-05-14T10:26:42.374Z,97304.81
2023-05-14T10:29:11.996Z,97315.16
2023-05-14T10:31:51.349Z,97307.72
2023-05-14T10:34:38.871Z,97279.25
2023-05-14T10:37:10.458Z,97298.19
2023-05-14T10:39:47.544Z,97275.63
2023-05-14T10:42:19.204Z,97196.44
2023-05-14T10:44:53.833Z,97278.47
2023-05-14T10:47:25.674Z,97293.22
2023-05-14T10:49:55.803Z,97266.09
2023-05-14T10:52:26.818Z,97282.78
2023-05-14T10:54:58.515Z,97252.34
2023-05-14T10:57:30.055Z,97264.66
2023-05-14T11:00:00.034Z,97268.59
2023-05-14T11:02:30.429Z,97258.78
2023-05-14T11:05:03.736Z,97240.34
2023-05-14T11:07:33.511Z,97240.47
2023-05-14T11:10:05.367Z,97218.63
2023-05-14T11:12:33.942Z,97217.53
2023-05-14T11:15:04.067Z,97211.28
2023-05-14T11:17:33.430Z,97153.75
2023-05-14T11:20:01.721Z,97227.94
2023-05-14T11:22:30.168Z,97213.00
2023-05-14T11:24:58.794Z,97216.41
2023-05-14T11:27:28.718Z,97247.34
2023-05-14T11:29:58.197Z,97240.06
2023-05-14T11:32:27.226Z,97225.09
2023-05-14T11:34:56.058Z,97246.06
2023-05-14T11:37:24.292Z,97212.31
2023-05-14T11:39:53.732Z,97246.84
2023-05-14T11:42:23.928Z,97220.69
2023-05-14T11:44:55.306Z,97189.81
2023-05-14T11:47:24.166Z,97230.41
2023-05-14T11:49:52.395Z,97231.47
2023-05-14T11:52:22.066Z,97124.84
2023-05-14T11:54:51.056Z,97165.69
2023-05-14T11:57:21.729Z,97205.09
2023-05-14T11:59:56.920Z,97233.41
2023-05-14T12:02:29.513Z,97244.25
2023-05-14T12:04:58.703Z,97228.50
2023-05-14T12:07:31.216Z,97211.03
2023-05-14T12:10:02.734Z,97146.69
2023-05-14T12:12:37.185Z,97130.53
2023-05-14T12:15:13.713Z,97196.19
2023-05-14T12:17:43.650Z,97130.34
2023-05-14T12:20:13.716Z,97213.63
2023-05-14T12:22:43.587Z,97211.09
2023-05-14T12:25:14.458Z,97210.91
2023-05-14T12:27:45.686Z,97203.19
2023-05-14T12:32:49.090Z,97202.69
2023-05-14T12:35:17.540Z,97205.66
2023-05-14T12:37:45.845Z,97210.34
2023-05-14T12:40:14.537Z,97205.28
2023-05-14T12:42:42.878Z,97209.06
2023-05-14T12:45:11.978Z,97216.38
2023-05-14T12:47:40.198Z,97239.31
2023-05-14T12:50:10.930Z,97242.31
2023-05-14T12:52:39.989Z,97176.63
2023-05-14T12:55:09.852Z,97228.97
2023-05-14T12:57:39.488Z,97231.81
2023-05-14T13:00:13.044Z,97189.84
2023-05-14T13:02:43.975Z,97214.38
2023-05-14T13:05:14.276Z,97197.88
2023-05-14T13:07:42.738Z,97180.25
2023-05-14T13:10:12.079Z,97212.44
2023-05-14T13:12:40.605Z,97145.09
2023-05-14T13:15:10.084Z,97154.97
2023-05-14T13:17:38.469Z,96969.28
2023-05-14T13:20:08.447Z,97208.63
2023-05-14T13:22:38.134Z,97213.69
2023-05-14T13:25:07.252Z,97215.56
2023-05-14T13:27:37.005Z,97209.22
2023-05-14T13:30:05.736Z,97206.00
2023-05-14T13:32:34.086Z,97203.28
2023-05-14T13:35:02.329Z,97173.63
2023-05-14T13:37:30.601Z,97143.47
2023-05-14T13:40:00.289Z,97147.41
2023-05-14T13:42:28.549Z,97167.06
2023-05-14T13:44:57.245Z,97172.09
2023-05-14T13:47:25.573Z,97186.91
2023-05-14T13:49:54.304Z,97168.78
2023-05-14T13:52:22.986Z,97146.56
2023-05-14T13:54:51.320Z,97182.75
2023-05-14T13:57:21.581Z,97188.78
2023-05-14T13:59:50.023Z,97128.19
2023-05-14T14:02:18.308Z,97042.91
2023-05-14T14:04:46.636Z,97146.22
2023-05-14T14:07:14.906Z,97157.09
2023-05-14T14:09:43.153Z,97033.31
2023-05-14T14:12:11.856Z,96664.19
2023-05-14T14:14:41.582Z,97085.91
2023-05-14T14:17:10.097Z,97134.53
2023-05-14T14:19:38.332Z,97167.19
2023-05-14T14:22:06.708Z,97129.06
2023-05-14T14:24:34.915Z,97180.56
2023-05-14T14:27:03.242Z,97169.81
2023-05-14T14:29:31.425Z,97176.88
2023-05-14T14:32:01.243Z,97110.94
2023-05-14T14:34:29.658Z,97114.94
2023-05-14T14:36:57.928Z,97158.41
2023-05-14T14:39:26.679Z,97109.69
2023-05-14T14:41:54.954Z,97160.03
2023-05-14T14:44:23.401Z,97156.50
2023-05-14T14:46:51.652Z,97149.50
2023-05-14T14:49:21.289Z,97146.88
2023-05-14T14:51:49.548Z,97155.25
2023-05-14T14:54:17.718Z,97078.34
2023-05-14T14:56:46.111Z,97159.59
2023-05-14T14:59:14.279Z,97154.34
2023-05-14T15:01:42.600Z,97079.63
2023-05-14T15:04:10.861Z,97111.22
2023-05-14T15:06:40.625Z,97153.47
2023-05-14T15:09:09.332Z,97157.81
2023-05-14T15:11:37.816Z,97154.16
2023-05-14T15:14:06.272Z,97134.09
2023-05-14T15:16:34.546Z,97115.34
2023-05-14T15:19:02.893Z,97141.03
2023-05-14T15:21:32.066Z,97163.31
2023-05-14T15:24:01.709Z,97108.13
2023-05-14T15:26:29.932Z,97123.56
2023-05-14T15:28:59.071Z,97119.34
2023-05-14T15:31:27.457Z,97132.88
2023-05-14T15:33:56.216Z,97044.19
2023-05-14T15:36:24.413Z,97130.13
2023-05-14T15:38:52.665Z,97116.97
2023-05-14T15:41:22.865Z,97126.84
2023-05-14T15:43:51.060Z,97100.66
2023-05-14T15:46:19.359Z,97119.53
2023-05-14T15:48:47.697Z,97133.16
2023-05-14T15:51:16.116Z,97099.91
2023-05-14T15:53:44.427Z,97121.53
2023-05-14T15:56:12.734Z,97112.84
2023-05-14T15:58:42.433Z,97123.34
2023-05-14T16:01:10.694Z,97110.22
2023-05-14T16:03:39.067Z,97101.03
2023-05-14T16:06:08.051Z,97131.69
2023-05-14T16:08:36.378Z,97108.84
2023-05-14T16:11:04.812Z,97108.84
2023-05-14T16:13:33.187Z,97072.75
2023-05-14T16:16:02.991Z,97084.84
2023-05-14T16:18:31.359Z,97061.72
2023-05-14T16:20:59.535Z,97077.97
2023-05-14T16:23:28.104Z,97057.41
2023-05-14T16:25:56.447Z,97047.66
2023-05-14T16:28:24.796Z,97073.28
2023-05-14T16:30:53.068Z,97067.25
2023-05-14T16:33:22.791Z,96970.25
2023-05-14T16:35:51.433Z,97047.78
2023-05-14T16:38:20.564Z,97073.69
2023-05-14T16:40:48.829Z,97080.75
2023-05-14T16:43:17.093Z,97094.47
2023-05-14T16:45:45.504Z,97038.94
2023-05-14T16:48:13.911Z,97058.38
2023-05-14T16:50:43.684Z,97077.94
2023-05-14T16:53:11.966Z,97029.56
2023-05-14T16:55:40.333Z,97063.84
2023-05-14T16:58:08.524Z,97070.38
2023-05-14T17:00:36.726Z,97071.97
2023-05-14T17:03:05.073Z,97075.13
2023-05-14T17:05:33.572Z,97074.19
2023-05-14T17:08:04.703Z,97052.94
2023-05-14T17:10:33.444Z,97081.16
2023-05-14T17:13:02.454Z,97068.34
2023-05-14T17:15:31.057Z,97066.97
2023-05-14T17:17:59.712Z,97075.91
2023-05-14T17:20:28.782Z,97077.84
2023-05-14T17:22:57.177Z,97060.75
2023-05-14T17:25:27.199Z,97040.84
2023-05-14T17:27:55.420Z,97048.72
2023-05-14T17:30:23.691Z,97072.03
2023-05-14T17:32:52.029Z,97078.78
2023-05-14T17:35:20.415Z,97070.97
2023-05-14T17:37:48.866Z,97062.63
2023-05-14T17:40:17.081Z,97071.16
2023-05-14T17:42:46.833Z,97072.50
2023-05-14T17:45:15.744Z,97058.50
2023-05-14T17:47:43.941Z,97037.00
2023-05-14T17:50:12.471Z,97063.00
2023-05-14T17:52:42.330Z,97047.56
2023-05-14T17:55:10.859Z,97039.22
2023-05-14T17:57:39.258Z,97077.81
2023-05-14T18:00:10.165Z,97074.28
2023-05-14T18:02:38.393Z,96990.50
2023-05-14T18:05:07.636Z,97065.34
2023-05-14T18:07:36.984Z,97073.88
2023-05-14T18:10:05.631Z,97062.72
2023-05-14T18:12:33.882Z,97049.00
2023-05-14T18:15:02.221Z,97056.72
2023-05-14T18:17:32.005Z,97058.50
2023-05-14T18:20:00.322Z,97032.84
2023-05-14T18:22:28.620Z,97021.06
2023-05-14T18:27:44.675Z,97055.63
2023-05-14T18:30:14.732Z,97040.88
2023-05-14T18:32:45.738Z,97038.38
2023-05-14T18:35:14.869Z,97018.88
2023-05-14T18:37:43.223Z,97036.16
2023-05-14T18:40:16.877Z,96990.28
2023-05-14T18:42:47.134Z,96715.59
2023-05-14T18:45:15.473Z,96974.94
2023-05-14T18:47:45.383Z,97010.16
2023-05-14T18:50:13.620Z,97035.19
2023-05-14T18:52:41.866Z,97043.91
2023-05-14T18:55:10.921Z,97033.75
2023-05-14T18:57:39.350Z,96987.31
2023-05-14T19:00:09.227Z,97033.75
2023-05-14T19:02:37.577Z,97042.44
2023-05-14T19:05:08.411Z,97064.63
2023-05-14T19:07:37.999Z,97064.56
2023-05-14T19:10:07.394Z,97056.09
2023-05-14T19:12:35.677Z,97014.31
2023-05-14T19:15:04.642Z,97079.22
2023-05-14T19:17:33.587Z,96990.22
2023-05-14T19:20:01.960Z,97079.69
2023-05-14T19:22:31.654Z,97078.91
2023-05-14T19:24:59.924Z,97077.78
2023-05-14T19:27:28.326Z,97081.34
2023-05-14T19:29:56.528Z,97056.66
2023-05-14T19:32:24.836Z,97070.38
2023-05-14T19:34:53.068Z,97063.34
2023-05-14T19:37:21.468Z,97067.50
2023-05-14T19:39:51.241Z,97058.78
2023-05-14T19:42:19.618Z,97026.44
2023-05-14T19:44:47.835Z,97041.63
2023-05-14T19:47:16.414Z,97045.34
2023-05-14T19:49:44.731Z,97029.00
2023-05-14T19:52:12.959Z,97030.59
2023-05-14T19:54:41.729Z,96823.41
2023-05-14T19:57:12.246Z,97052.19
2023-05-14T19:59:41.556Z,97050.47
2023-05-14T20:02:12.506Z,97043.41
2023-05-14T20:04:40.999Z,97034.81
2023-05-14T20:07:10.202Z,97025.34
2023-05-14T20:09:38.772Z,97002.25
2023-05-14T20:12:07.785Z,96997.66
2023-05-14T20:14:39.422Z,96949.94
2023-05-14T20:17:07.807Z,96999.47
2023-05-14T20:19:36.501Z,97020.03
2023-05-14T20:22:04.756Z,97021.13
2023-05-14T20:24:34.512Z,97016.63
2023-05-14T20:27:28.664Z,97016.88
2023-05-14T20:29:59.505Z,97004.88
2023-05-14T20:32:27.700Z,97021.09
2023-05-14T20:34:55.847Z,97001.31
2023-05-14T20:37:25.586Z,96922.94
2023-05-14T20:39:53.734Z,97021.19
2023-05-14T20:42:22.002Z,97017.97
2023-05-14T20:44:51.328Z,97008.22
2023-05-14T20:47:23.256Z,96760.50
2023-05-14T20:49:52.283Z,96898.88
2023-05-14T20:52:20.598Z,96924.34
2023-05-14T20:54:49.198Z,96933.06
2023-05-14T20:57:17.757Z,96964.94
2023-05-14T20:59:46.843Z,96905.66
2023-05-14T21:02:15.328Z,96930.50
2023-05-14T21:04:45.243Z,96929.81
2023-05-14T21:07:13.482Z,96944.38
2023-05-14T21:09:42.088Z,96976.28
2023-05-14T21:12:11.214Z,96972.88
2023-05-14T21:14:39.526Z,96909.84
2023-05-14T21:17:08.222Z,96976.50
2023-05-14T21:19:36.590Z,96969.44
2023-05-14T21:22:06.701Z,96973.81
2023-05-14T21:24:34.938Z,96960.25
2023-05-14T21:27:03.513Z,96943.06
2023-05-14T21:29:31.739Z,96966.16
2023-05-14T21:32:00.157Z,96965.41
2023-05-14T21:34:29.747Z,96964.44
2023-05-14T21:36:59.282Z,96943.84
2023-05-14T21:39:30.975Z,96928.72
2023-05-14T21:42:00.234Z,96961.78
2023-05-14T21:44:28.456Z,96962.72
2023-05-14T21:46:57.039Z,96957.66
2023-05-14T21:49:25.364Z,96941.22
2023-05-14T21:51:55.262Z,96955.78
2023-05-14T21:54:24.038Z,96948.72
2023-05-14T21:56:53.737Z,96908.63
2023-05-14T21:59:22.856Z,96957.50
2023-05-14T22:02:06.294Z,96941.91
2023-05-14T22:04:35.803Z,96917.34
2023-05-14T22:07:03.982Z,96950.97
2023-05-14T22:09:32.788Z,96911.63
2023-05-14T22:12:02.469Z,96825.13
2023-05-14T22:14:30.589Z,96923.06
2023-05-14T22:16:58.873Z,96922.22
2023-05-14T22:19:28.339Z,96917.81
2023-05-14T22:21:57.034Z,96881.06
2023-05-14T22:24:26.187Z,96890.28
2023-05-14T22:26:54.795Z,96909.16
2023-05-14T22:29:24.421Z,96898.03
2023-05-14T22:31:52.805Z,96903.97
2023-05-14T22:34:21.082Z,96907.69
2023-05-14T22:36:49.307Z,96893.13
2023-05-14T22:39:17.408Z,96894.00
2023-05-14T22:41:45.940Z,96872.44
2023-05-14T22:44:14.194Z,96891.25
2023-05-14T22:46:43.868Z,96892.66
2023-05-14T22:49:12.072Z,96890.28
2023-05-14T22:51:40.396Z,96924.22
2023-05-14T22:54:08.588Z,96907.59
2023-05-14T22:56:37.229Z,96926.28
2023-05-14T22:59:05.525Z,96882.53
2023-05-14T23:01:33.849Z,96901.38
2023-05-14T23:04:03.585Z,96907.50
2023-05-14T23:06:32.250Z,96933.59
2023-05-14T23:09:00.599Z,96924.28
2023-05-14T23:11:28.850Z,96940.94
2023-05-14T23:13:57.166Z,96936.53
2023-05-14T23:16:26.086Z,96922.59
2023-05-14T23:18:54.539Z,96816.97
2023-05-14T23:21:24.383Z,96916.44
2023-05-14T23:23:52.598Z,96913.00
2023-05-14T23:26:21.683Z,96936.22
2023-05-14T23:28:49.848Z,96878.09
2023-05-14T23:31:18.045Z,96908.16
2023-05-14T23:33:46.771Z,96887.38
2023-05-14T23:36:15.050Z,96884.00
2023-05-14T23:38:44.896Z,96854.28
2023-05-14T23:41:13.095Z,96875.69
2023-05-14T23:43:41.230Z,96782.28
2023-05-14T23:46:09.522Z,96866.41
2023-05-14T23:48:37.758Z,96862.09
2023-05-14T23:51:05.953Z,96868.22
2023-05-14T23:53:34.055Z,96878.09
2023-05-14T23:56:03.729Z,96740.78
2023-05-14T23:58:33.053Z,96819.63
